Latest Weather Observations for North Head

IDN60801

Issued at 5:34 am EDT Sunday 28 December 2014 (issued every 30 minutes, with the page automatically refreshed every 10 minutes)

About weather observations | Map of weather stations | Latest weather observations for NSW | Other Formats
Station Details ID: 066197 Name: NORTH HEAD Lat: -33.82 Lon: 151.30 Height: 90.0 m
Data from the previous 72 hours. | See also: Recent months for locations in New South Wales
Date/Time
EDT
Temp
°C
App
Temp
°C
Dew
Point
Rel
Hum
%
Delta-T
°C
Wind Press
QNH
hPa
Press
MSL
hPa
Rain
since 9 am
mm
Dir
 
Spd
km/h
Gust
km/h
Spd
kts
Gust
kts
28/05:30am - - - - - NW 4 6 2 3 - - -
28/05:00am - - - - - WSW 7 9 4 5 - - -
28/04:30am - - - - - W 7 9 4 5 - - -
28/04:00am - - - - - WNW 6 7 3 4 - - -
28/03:30am - - - - - SW 6 6 3 3 - - -
28/03:00am - - - - - SSW 4 4 2 2 - - -
28/02:30am - - - - - W 4 6 2 3 - - -
28/02:00am - - - - - NNE 6 7 3 4 - - -
28/01:30am - - - - - E 6 7 3 4 - - -
28/01:00am - - - - - NE 7 9 4 5 - - -
28/12:30am - - - - - ENE 9 15 5 8 - - -
28/12:00am - - - - - ENE 13 19 7 10 - - -
 
Date/Time
EDT
Temp
°C
App
Temp
°C
Dew
Point
Rel
Hum
%
Delta-T
°C
Wind Press
QNH
hPa
Press
MSL
hPa
Rain
since 9 am
mm
Dir
 
Spd
km/h
Gust
km/h
Spd
kts
Gust
kts
27/11:30pm - - - - - ENE 15 32 8 17 - - -
27/11:00pm - - - - - E 19 28 10 15 - - -
27/10:30pm - - - - - ESE 19 26 10 14 - - -
27/10:00pm - - - - - ESE 17 22 9 12 - - -
27/09:30pm - - - - - ESE 11 20 6 11 - - -
27/09:00pm - - - - - ESE 15 20 8 11 - - -
27/08:30pm - - - - - ESE 13 20 7 11 - - -
27/08:00pm - - - - - ESE 15 24 8 13 - - -
27/07:30pm - - - - - ESE 17 24 9 13 - - -
27/07:00pm - - - - - ESE 15 22 8 12 - - -
27/06:30pm - - - - - ESE 11 19 6 10 - - -
27/06:00pm - - - - - ESE 15 20 8 11 - - -
27/05:30pm - - - - - ESE 15 22 8 12 - - -
27/05:00pm - - - - - ESE 13 22 7 12 - - -
27/04:30pm - - - - - ESE 15 24 8 13 - - -
27/04:00pm - - - - - ESE 11 17 6 9 - - -
27/03:30pm - - - - - ESE 13 19 7 10 - - -
27/03:00pm - - - - - ESE 11 17 6 9 - - -
27/02:30pm - - - - - ESE 13 17 7 9 - - -
27/02:00pm - - - - - ESE 13 19 7 10 - - -
27/01:30pm - - - - - ESE 13 20 7 11 - - -
27/01:00pm - - - - - SE 11 17 6 9 - - -
27/12:30pm - - - - - SE 11 17 6 9 - - -
27/12:00pm - - - - - SE 9 17 5 9 - - -
27/11:30am - - - - - SE 9 13 5 7 - - -
27/11:00am - - - - - ESE 9 15 5 8 - - -
27/10:30am - - - - - ESE 11 17 6 9 - - -
27/10:00am - - - - - ESE 9 13 5 7 - - -
27/09:30am - - - - - SE 9 13 5 7 - - -
27/09:00am - - - - - SE 9 15 5 8 - - -
27/08:30am - - - - - SE 9 13 5 7 - - -
27/08:00am - - - - - SE 11 17 6 9 - - -
27/07:30am - - - - - ESE 11 19 6 10 - - -
27/07:00am - - - - - ESE 13 24 7 13 - - -
27/06:30am - - - - - ESE 13 20 7 11 - - -
27/06:00am - - - - - SE 11 20 6 11 - - -
27/05:30am - - - - - SE 13 20 7 11 - - -
27/05:00am - - - - - SSE 15 22 8 12 - - -
27/04:30am - - - - - SSE 17 24 9 13 - - -
27/04:00am - - - - - SSE 17 24 9 13 - - -
27/03:30am - - - - - SE 15 24 8 13 - - -
27/03:00am - - - - - SE 17 26 9 14 - - -
27/02:30am - - - - - SE 17 28 9 15 - - -
27/02:00am - - - - - SE 17 26 9 14 - - -
27/01:30am - - - - - SSE 20 32 11 17 - - -
27/01:00am - - - - - SE 22 35 12 19 - - -
27/12:30am - - - - - SE 19 30 10 16 - - -
27/12:00am - - - - - SE 19 33 10 18 - - -
 
Date/Time
EDT
Temp
°C
App
Temp
°C
Dew
Point
Rel
Hum
%
Delta-T
°C
Wind Press
QNH
hPa
Press
MSL
hPa
Rain
since 9 am
mm
Dir
 
Spd
km/h
Gust
km/h
Spd
kts
Gust
kts
26/11:30pm - - - - - ESE 19 32 10 17 - - -
26/11:00pm - - - - - SE 20 35 11 19 - - -
26/10:30pm - - - - - SE 20 32 11 17 - - -
26/10:00pm - - - - - SE 22 35 12 19 - - -
26/09:30pm - - - - - SE 24 39 13 21 - - -
26/09:00pm - - - - - SSE 24 37 13 20 - - -
26/08:30pm - - - - - SSE 24 35 13 19 - - -
26/08:00pm - - - - - SSE 30 44 16 24 - - -
26/07:30pm - - - - - SSE 32 43 17 23 - - -
26/07:00pm - - - - - SSE 32 43 17 23 - - -
26/06:30pm - - - - - SSE 33 48 18 26 - - -
26/06:00pm - - - - - SSE 32 46 17 25 - - -
26/05:30pm - - - - - SSE 33 46 18 25 - - -
26/05:00pm - - - - - SSE 37 50 20 27 - - -
26/04:30pm - - - - - SSE 39 50 21 27 - - -
26/04:00pm - - - - - SSE 35 46 19 25 - - -
26/03:30pm - - - - - SSE 35 50 19 27 - - -
26/03:00pm - - - - - SSE 35 50 19 27 - - -
26/02:30pm - - - - - SSE 35 50 19 27 - - -
26/02:00pm - - - - - SSE 26 39 14 21 - - -
26/01:30pm - - - - - SSE 24 37 13 20 - - -
26/01:00pm - - - - - SSE 28 39 15 21 - - -
26/12:30pm - - - - - SSE 24 33 13 18 - - -
26/12:00pm - - - - - SE 19 24 10 13 - - -
26/11:30am - - - - - SE 19 24 10 13 - - -
26/11:00am - - - - - SSE 15 24 8 13 - - -
26/10:30am - - - - - WSW 11 19 6 10 - - -
26/10:00am - - - - - SW 11 22 6 12 - - -
26/09:30am - - - - - WSW 17 28 9 15 - - -
26/09:00am - - - - - W 13 20 7 11 - - -
26/08:30am - - - - - W 13 22 7 12 - - -
26/08:00am - - - - - W 9 13 5 7 - - -
26/07:30am - - - - - WNW 9 13 5 7 - - -
26/07:00am - - - - - WNW 9 13 5 7 - - -
26/06:30am - - - - - W 9 13 5 7 - - -
26/06:00am - - - - - W 6 7 3 4 - - -
26/05:30am - - - - - NW 7 7 4 4 - - -
26/05:00am - - - - - NW 6 9 3 5 - - -
26/04:30am - - - - - NNW 4 6 2 3 - - -
26/04:00am - - - - - NNW 6 7 3 4 - - -
26/03:30am - - - - - NNW 6 7 3 4 - - -
26/03:00am - - - - - NNW 4 6 2 3 - - -
26/02:30am - - - - - NW 6 7 3 4 - - -
26/02:00am - - - - - WNW 6 7 3 4 - - -
26/01:30am - - - - - NW 7 9 4 5 - - -
26/01:00am - - - - - NW 9 11 5 6 - - -
26/12:30am - - - - - NW 9 13 5 7 - - -
26/12:00am - - - - - NNW 11 19 6 10 - - -
 
Date/Time
EDT
Temp
°C
App
Temp
°C
Dew
Point
Rel
Hum
%
Delta-T
°C
Wind Press
QNH
hPa
Press
MSL
hPa
Rain
since 9 am
mm
Dir
 
Spd
km/h
Gust
km/h
Spd
kts
Gust
kts
25/11:30pm - - - - - NNW 11 19 6 10 - - -
25/11:00pm - - - - - WNW 9 15 5 8 - - -
25/10:30pm - - - - - N 9 17 5 9 - - -
25/10:00pm - - - - - ESE 17 26 9 14 - - -
25/09:30pm - - - - - SSE 11 15 6 8 - - -
25/09:00pm - - - - - S 9 15 5 8 - - -
25/08:30pm - - - - - SSE 13 19 7 10 - - -
25/08:00pm - - - - - S 11 17 6 9 - - -
25/07:30pm - - - - - SE 15 19 8 10 - - -
25/07:00pm - - - - - S 11 17 6 9 - - -
25/06:30pm - - - - - SSE 13 19 7 10 - - -
25/06:00pm - - - - - SSE 19 26 10 14 - - -
25/05:30pm - - - - - W 19 28 10 15 - - -
25/05:00pm - - - - - NNE 17 24 9 13 - - -
25/04:30pm - - - - - NNE 20 28 11 15 - - -
25/04:00pm - - - - - NNE 19 28 10 15 - - -
25/03:30pm - - - - - NNE 22 30 12 16 - - -
25/03:00pm - - - - - NNE 19 32 10 17 - - -
25/02:30pm - - - - - NNE 22 33 12 18 - - -
25/02:00pm - - - - - NE 17 26 9 14 - - -
25/01:30pm - - - - - NE 20 28 11 15 - - -
25/01:00pm - - - - - NE 22 30 12 16 - - -
25/12:30pm - - - - - NNE 19 28 10 15 - - -
25/12:00pm - - - - - ENE 15 24 8 13 - - -
25/11:30am - - - - - NE 17 26 9 14 - - -
25/11:00am - - - - - NE 11 19 6 10 - - -
25/10:30am - - - - - NE 17 24 9 13 - - -
25/10:00am - - - - - NE 13 20 7 11 - - -
25/09:30am - - - - - NNE 15 20 8 11 - - -
25/09:00am - - - - - NNE 13 17 7 9 - - -
25/08:30am - - - - - NNE 11 17 6 9 - - -
25/08:00am - - - - - NNE 9 15 5 8 - - -
25/07:30am - - - - - NNE 7 9 4 5 - - -
25/07:00am - - - - - NNE 4 7 2 4 - - -
25/06:30am - - - - - NE 2 4 1 2 - - -
25/06:00am - - - - - E 6 7 3 4 - - -

Other Formats:

Comma delimited format used in spreadsheet applications
http://www.bom.gov.au/fwo/IDN60801/IDN60801.95768.axf

JavaScript Object Notation format (JSON) in row-major order
http://www.bom.gov.au/fwo/IDN60801/IDN60801.95768.json